createdAt,value
2023-01-27T00:00:36.956Z,1017.23
2023-01-27T00:01:36.951Z,1017.23
2023-01-27T00:02:38.515Z,1017.21
2023-01-27T00:03:37.004Z,1017.21
2023-01-27T00:04:36.917Z,1017.28
2023-01-27T00:05:36.913Z,1017.27
2023-01-27T00:06:36.904Z,1017.25
2023-01-27T00:07:36.892Z,1017.26
2023-01-27T00:08:36.880Z,1017.30
2023-01-27T00:09:36.866Z,1017.24
2023-01-27T00:10:36.859Z,1017.29
2023-01-27T00:11:36.851Z,1017.18
2023-01-27T00:12:36.839Z,1017.19
2023-01-27T00:13:36.829Z,1017.20
2023-01-27T00:14:36.844Z,1017.24
2023-01-27T00:15:36.912Z,1017.18
2023-01-27T00:16:36.808Z,1017.20
2023-01-27T00:17:36.792Z,1017.21
2023-01-27T00:18:36.778Z,1017.23
2023-01-27T00:19:36.779Z,1017.28
2023-01-27T00:20:36.760Z,1017.24
2023-01-27T00:21:36.755Z,1017.24
2023-01-27T00:22:36.744Z,1017.23
2023-01-27T00:23:36.734Z,1017.27
2023-01-27T00:24:36.735Z,1017.21
2023-01-27T00:25:36.715Z,1017.23
2023-01-27T00:26:36.720Z,1017.27
2023-01-27T00:27:36.757Z,1017.22
2023-01-27T00:28:36.683Z,1017.24
2023-01-27T00:29:36.681Z,1017.29
2023-01-27T00:30:36.777Z,1017.29
2023-01-27T00:31:36.763Z,1017.30
2023-01-27T00:32:36.649Z,1017.30
2023-01-27T00:33:36.645Z,1017.32
2023-01-27T00:34:36.631Z,1017.29
2023-01-27T00:35:36.624Z,1017.31
2023-01-27T00:36:36.611Z,1017.29
2023-01-27T00:37:36.607Z,1017.35
2023-01-27T00:38:36.601Z,1017.32
2023-01-27T00:39:36.585Z,1017.34
2023-01-27T00:40:36.573Z,1017.36
2023-01-27T00:41:36.572Z,1017.36
2023-01-27T00:42:36.552Z,1017.34
2023-01-27T00:43:36.547Z,1017.37
2023-01-27T00:44:36.546Z,1017.36
2023-01-27T00:45:36.528Z,1017.38
2023-01-27T00:46:36.613Z,1017.35
2023-01-27T00:47:36.508Z,1017.39
2023-01-27T00:48:36.500Z,1017.41
2023-01-27T00:49:36.495Z,1017.42
2023-01-27T00:50:36.481Z,1017.45
2023-01-27T00:51:36.474Z,1017.45
2023-01-27T00:52:36.456Z,1017.43
2023-01-27T00:53:36.449Z,1017.47
2023-01-27T00:54:36.438Z,1017.39
2023-01-27T00:55:36.429Z,1017.42
2023-01-27T00:56:36.418Z,1017.45
2023-01-27T00:57:36.409Z,1017.42
2023-01-27T00:58:36.402Z,1017.42
2023-01-27T00:59:36.840Z,1017.44
2023-01-27T01:00:36.381Z,1017.43
2023-01-27T01:01:36.417Z,1017.45
2023-01-27T01:02:36.396Z,1017.52
2023-01-27T01:03:36.355Z,1017.47
2023-01-27T01:04:36.343Z,1017.40
2023-01-27T01:05:36.338Z,1017.45
2023-01-27T01:06:36.327Z,1017.45
2023-01-27T01:07:36.323Z,1017.47
2023-01-27T01:08:36.305Z,1017.43
2023-01-27T01:09:36.302Z,1017.43
2023-01-27T01:10:36.286Z,1017.47
2023-01-27T01:11:36.277Z,1017.50
2023-01-27T01:12:36.264Z,1017.45
2023-01-27T01:13:36.256Z,1017.44
2023-01-27T01:14:36.245Z,1017.48
2023-01-27T01:15:36.237Z,1017.55
2023-01-27T01:16:36.228Z,1017.50
2023-01-27T01:17:36.218Z,1017.55
2023-01-27T01:18:36.271Z,1017.50
2023-01-27T01:19:36.214Z,1017.65
2023-01-27T01:20:36.189Z,1017.58
2023-01-27T01:21:36.182Z,1017.63
2023-01-27T01:22:36.169Z,1017.60
2023-01-27T01:23:36.161Z,1017.66
2023-01-27T01:24:36.149Z,1017.60
2023-01-27T01:25:36.142Z,1017.65
2023-01-27T01:26:36.134Z,1017.65
2023-01-27T01:27:36.123Z,1017.73
2023-01-27T01:28:36.118Z,1017.64
2023-01-27T01:29:36.102Z,1017.60
2023-01-27T01:30:36.146Z,1017.59
2023-01-27T01:31:36.156Z,1017.64
2023-01-27T01:32:36.071Z,1017.59
2023-01-27T01:33:36.068Z,1017.56
2023-01-27T01:34:36.069Z,1017.63
2023-01-27T01:35:36.049Z,1017.63
2023-01-27T01:36:36.035Z,1017.62
2023-01-27T01:37:36.023Z,1017.62
2023-01-27T01:38:36.023Z,1017.65
2023-01-27T01:39:36.006Z,1017.61
2023-01-27T01:40:35.997Z,1017.64
2023-01-27T01:41:35.991Z,1017.64
2023-01-27T01:42:35.974Z,1017.64
2023-01-27T01:43:35.976Z,1017.66
2023-01-27T01:44:35.956Z,1017.67
2023-01-27T01:45:35.950Z,1017.67
2023-01-27T01:46:35.985Z,1017.67
2023-01-27T01:47:35.927Z,1017.63
2023-01-27T01:48:35.918Z,1017.71
2023-01-27T01:49:35.913Z,1017.71
2023-01-27T01:50:35.919Z,1017.66
2023-01-27T01:51:35.889Z,1017.71
2023-01-27T01:52:35.880Z,1017.59
2023-01-27T01:53:35.877Z,1017.58
2023-01-27T01:54:35.861Z,1017.61
2023-01-27T01:55:35.854Z,1017.64
2023-01-27T01:56:35.860Z,1017.61
2023-01-27T01:57:35.834Z,1017.65
2023-01-27T01:58:35.820Z,1017.59
2023-01-27T01:59:35.811Z,1017.67
2023-01-27T02:00:35.803Z,1017.69
2023-01-27T02:01:35.798Z,1017.76
2023-01-27T02:02:35.841Z,1017.69
2023-01-27T02:03:35.771Z,1017.73
2023-01-27T02:04:35.768Z,1017.74
2023-01-27T02:05:35.779Z,1017.79
2023-01-27T02:06:35.761Z,1017.73
2023-01-27T02:07:35.749Z,1017.81
2023-01-27T02:08:35.726Z,1017.75
2023-01-27T02:09:35.714Z,1017.82
2023-01-27T02:10:35.705Z,1017.82
2023-01-27T02:11:35.697Z,1017.83
2023-01-27T02:12:35.687Z,1017.82
2023-01-27T02:13:35.680Z,1017.85
2023-01-27T02:14:35.672Z,1017.83
2023-01-27T02:15:35.657Z,1017.89
2023-01-27T02:16:35.721Z,1017.85
2023-01-27T02:17:35.638Z,1017.83
2023-01-27T02:18:35.626Z,1017.94
2023-01-27T02:19:35.617Z,1017.93
2023-01-27T02:20:35.608Z,1017.89
2023-01-27T02:21:35.599Z,1017.90
2023-01-27T02:22:35.610Z,1017.87
2023-01-27T02:23:35.579Z,1017.86
2023-01-27T02:24:35.572Z,1017.89
2023-01-27T02:25:35.558Z,1017.84
2023-01-27T02:26:35.556Z,1017.89
2023-01-27T02:27:35.541Z,1017.91
2023-01-27T02:28:35.531Z,1017.97
2023-01-27T02:29:35.520Z,1017.95
2023-01-27T02:30:35.721Z,1017.95
2023-01-27T02:31:35.702Z,1017.95
2023-01-27T02:32:35.506Z,1018.00
2023-01-27T02:33:35.486Z,1017.93
2023-01-27T02:34:35.474Z,1017.96
2023-01-27T02:35:35.462Z,1017.96
2023-01-27T02:36:35.454Z,1017.93
2023-01-27T02:37:35.644Z,1017.96
2023-01-27T02:38:35.453Z,1017.95
2023-01-27T02:39:35.429Z,1017.97
2023-01-27T02:40:35.417Z,1017.99
2023-01-27T02:41:35.449Z,1017.98
2023-01-27T02:42:35.397Z,1018.04
2023-01-27T02:43:35.389Z,1017.99
2023-01-27T02:44:35.383Z,1017.96
2023-01-27T02:45:35.369Z,1017.99
2023-01-27T02:46:35.361Z,1017.98
2023-01-27T02:47:35.346Z,1017.99
2023-01-27T02:48:35.341Z,1018.03
2023-01-27T02:49:35.329Z,1018.02
2023-01-27T02:50:35.325Z,1017.97
2023-01-27T02:51:35.307Z,1018.04
2023-01-27T02:52:35.299Z,1018.03
2023-01-27T02:53:35.289Z,1018.01
2023-01-27T02:54:35.308Z,1018.02
2023-01-27T02:55:35.270Z,1018.08
2023-01-27T02:56:35.271Z,1018.04
2023-01-27T02:57:35.254Z,1018.06
2023-01-27T02:58:35.241Z,1018.15
2023-01-27T02:59:35.238Z,1018.08
2023-01-27T03:00:35.231Z,1018.04
2023-01-27T03:01:35.229Z,1018.08
2023-01-27T03:02:35.255Z,1018.08
2023-01-27T03:03:35.192Z,1018.13
2023-01-27T03:04:35.183Z,1018.09
2023-01-27T03:05:35.178Z,1018.04
2023-01-27T03:06:35.164Z,1018.12
2023-01-27T03:07:35.157Z,1018.13
2023-01-27T03:08:35.142Z,1018.14
2023-01-27T03:09:35.140Z,1018.09
2023-01-27T03:10:35.144Z,1018.14
2023-01-27T03:11:35.111Z,1018.09
2023-01-27T03:12:35.105Z,1018.13
2023-01-27T03:13:35.091Z,1018.07
2023-01-27T03:14:35.088Z,1018.08
2023-01-27T03:15:35.083Z,1018.10
2023-01-27T03:16:35.062Z,1018.14
2023-01-27T03:17:35.053Z,1018.10
2023-01-27T03:18:35.043Z,1018.12
2023-01-27T03:19:35.044Z,1018.08
2023-01-27T03:20:35.033Z,1018.05
2023-01-27T03:21:35.012Z,1018.03
2023-01-27T03:22:35.001Z,1018.02
2023-01-27T03:23:35.045Z,1018.00
2023-01-27T03:24:34.984Z,1017.95
2023-01-27T03:25:34.973Z,1017.97
2023-01-27T03:26:34.983Z,1018.04
2023-01-27T03:27:34.953Z,1018.01
2023-01-27T03:28:34.945Z,1018.00
2023-01-27T03:29:34.936Z,1018.04
2023-01-27T03:30:34.997Z,1018.03
2023-01-27T03:31:35.043Z,1017.99
2023-01-27T03:32:34.901Z,1018.07
2023-01-27T03:33:34.890Z,1018.10
2023-01-27T03:34:34.884Z,1018.14
2023-01-27T03:35:34.873Z,1018.10
2023-01-27T03:36:34.861Z,1018.11
2023-01-27T03:37:34.853Z,1018.11
2023-01-27T03:38:35.196Z,1018.12
2023-01-27T03:39:34.831Z,1018.11
2023-01-27T03:40:34.824Z,1018.09
2023-01-27T03:41:34.816Z,1018.08
2023-01-27T03:42:34.824Z,1018.09
2023-01-27T03:43:34.792Z,1018.08
2023-01-27T03:44:34.780Z,1018.13
2023-01-27T03:45:34.767Z,1018.10
2023-01-27T03:46:34.775Z,1018.14
2023-01-27T03:47:34.750Z,1018.09
2023-01-27T03:48:34.740Z,1018.12
2023-01-27T03:49:34.731Z,1018.11
2023-01-27T03:50:34.742Z,1018.07
2023-01-27T03:51:34.704Z,1018.10
2023-01-27T03:52:34.700Z,1018.09
2023-01-27T03:53:34.689Z,1018.04
2023-01-27T03:54:34.688Z,1018.05
2023-01-27T03:55:34.678Z,1018.02
2023-01-27T03:56:34.658Z,1018.03
2023-01-27T03:57:34.646Z,1018.08
2023-01-27T03:58:34.655Z,1018.07
2023-01-27T03:59:34.628Z,1018.08
2023-01-27T04:00:34.621Z,1018.09
2023-01-27T04:01:34.671Z,1018.07
2023-01-27T04:02:34.593Z,1018.04
2023-01-27T04:03:34.583Z,1018.09
2023-01-27T04:04:34.579Z,1018.12
2023-01-27T04:05:34.564Z,1018.09
2023-01-27T04:06:34.557Z,1018.09
2023-01-27T04:07:34.543Z,1018.09
2023-01-27T04:08:34.534Z,1018.12
2023-01-27T04:09:34.520Z,1018.07
2023-01-27T04:10:34.516Z,1018.12
2023-01-27T04:11:34.504Z,1018.09
2023-01-27T04:12:34.492Z,1018.14
2023-01-27T04:13:34.482Z,1018.13
2023-01-27T04:14:34.490Z,1018.15
2023-01-27T04:15:34.478Z,1018.21
2023-01-27T04:16:34.467Z,1018.23
2023-01-27T04:17:34.438Z,1018.23
2023-01-27T04:18:34.430Z,1018.23
2023-01-27T04:19:34.420Z,1018.23
2023-01-27T04:20:34.410Z,1018.18
2023-01-27T04:21:34.405Z,1018.25
2023-01-27T04:22:34.387Z,1018.26
2023-01-27T04:23:34.377Z,1018.28
2023-01-27T04:24:34.374Z,1018.24
2023-01-27T04:25:34.358Z,1018.31
2023-01-27T04:26:34.363Z,1018.25
2023-01-27T04:27:34.337Z,1018.28
2023-01-27T04:28:43.850Z,1018.31
2023-01-27T04:29:34.324Z,1018.29
2023-01-27T04:30:34.341Z,1018.26
2023-01-27T04:31:34.325Z,1018.30
2023-01-27T04:32:34.287Z,1018.22
2023-01-27T04:33:34.278Z,1018.16
2023-01-27T04:34:34.269Z,1018.22
2023-01-27T04:35:38.838Z,1018.22
2023-01-27T04:36:34.246Z,1018.23
2023-01-27T04:37:34.239Z,1018.24
2023-01-27T04:38:34.229Z,1018.23
2023-01-27T04:39:34.211Z,1018.28
2023-01-27T04:40:34.207Z,1018.27
2023-01-27T04:41:34.194Z,1018.24
2023-01-27T04:42:34.183Z,1018.28
2023-01-27T04:43:34.323Z,1018.30
2023-01-27T04:44:34.164Z,1018.27
2023-01-27T04:45:34.192Z,1018.28
2023-01-27T04:46:34.165Z,1018.30
2023-01-27T04:47:34.131Z,1018.31
2023-01-27T04:48:34.122Z,1018.33
2023-01-27T04:49:34.110Z,1018.34
2023-01-27T04:50:34.101Z,1018.29
2023-01-27T04:51:34.088Z,1018.30
2023-01-27T04:52:34.097Z,1018.25
2023-01-27T04:53:34.098Z,1018.28
2023-01-27T04:54:34.080Z,1018.28
2023-01-27T04:55:34.049Z,1018.33
2023-01-27T04:56:34.082Z,1018.33
2023-01-27T04:57:34.028Z,1018.31
2023-01-27T04:58:34.017Z,1018.40
2023-01-27T04:59:34.038Z,1018.35
2023-01-27T05:00:34.007Z,1018.36
2023-01-27T05:01:34.090Z,1018.41
2023-01-27T05:02:34.068Z,1018.41
2023-01-27T05:03:33.965Z,1018.39
2023-01-27T05:04:33.969Z,1018.40
2023-01-27T05:05:34.014Z,1018.39
2023-01-27T05:06:33.994Z,1018.41
2023-01-27T05:07:33.966Z,1018.41
2023-01-27T05:08:33.967Z,1018.43
2023-01-27T05:09:33.920Z,1018.43
2023-01-27T05:10:33.910Z,1018.45
2023-01-27T05:11:33.882Z,1018.44
2023-01-27T05:12:33.874Z,1018.41
2023-01-27T05:13:33.862Z,1018.47
2023-01-27T05:14:33.862Z,1018.46
2023-01-27T05:15:33.896Z,1018.46
2023-01-27T05:16:33.893Z,1018.47
2023-01-27T05:17:33.824Z,1018.49
2023-01-27T05:18:33.828Z,1018.48
2023-01-27T05:19:33.804Z,1018.47
2023-01-27T05:20:33.797Z,1018.49
2023-01-27T05:21:33.779Z,1018.49
2023-01-27T05:22:33.771Z,1018.54
2023-01-27T05:23:33.763Z,1018.54
2023-01-27T05:24:33.751Z,1018.54
2023-01-27T05:25:33.739Z,1018.54
2023-01-27T05:26:33.737Z,1018.53
2023-01-27T05:27:33.718Z,1018.57
2023-01-27T05:28:33.710Z,1018.58
2023-01-27T05:29:33.697Z,1018.61
2023-01-27T05:30:33.723Z,1018.60
2023-01-27T05:31:33.804Z,1018.61
2023-01-27T05:32:33.669Z,1018.61
2023-01-27T05:33:33.688Z,1018.63
2023-01-27T05:34:33.668Z,1018.62
2023-01-27T05:35:33.635Z,1018.56
2023-01-27T05:36:33.632Z,1018.60
2023-01-27T05:37:33.617Z,1018.62
2023-01-27T05:38:33.605Z,1018.65
2023-01-27T05:39:33.594Z,1018.70
2023-01-27T05:40:33.609Z,1018.67
2023-01-27T05:41:33.576Z,1018.64
2023-01-27T05:42:33.571Z,1018.62
2023-01-27T05:43:33.556Z,1018.65
2023-01-27T05:44:33.551Z,1018.66
2023-01-27T05:45:33.539Z,1018.66
2023-01-27T05:46:33.630Z,1018.65
2023-01-27T05:47:33.524Z,1018.68
2023-01-27T05:48:33.506Z,1018.66
2023-01-27T05:49:33.496Z,1018.67
2023-01-27T05:50:33.505Z,1018.71
2023-01-27T05:51:33.476Z,1018.70
2023-01-27T05:52:33.465Z,1018.67
2023-01-27T05:53:33.455Z,1018.71
2023-01-27T05:54:33.443Z,1018.69
2023-01-27T05:55:33.437Z,1018.70
2023-01-27T05:56:33.423Z,1018.70
2023-01-27T05:57:33.414Z,1018.66
2023-01-27T05:58:33.407Z,1018.69
2023-01-27T05:59:33.391Z,1018.68
2023-01-27T06:00:33.395Z,1018.64
2023-01-27T06:01:33.398Z,1018.73
2023-01-27T06:02:33.449Z,1018.68
2023-01-27T06:03:33.352Z,1018.69
2023-01-27T06:04:33.342Z,1018.66
2023-01-27T06:05:33.331Z,1018.72
2023-01-27T06:06:33.349Z,1018.72
2023-01-27T06:07:33.334Z,1018.72
2023-01-27T06:08:33.300Z,1018.74
2023-01-27T06:09:33.291Z,1018.71
2023-01-27T06:10:33.280Z,1018.73
2023-01-27T06:11:33.271Z,1018.75
2023-01-27T06:12:33.268Z,1018.72
2023-01-27T06:13:33.254Z,1018.73
2023-01-27T06:14:33.239Z,1018.77
2023-01-27T06:15:33.231Z,1018.79
2023-01-27T06:16:33.283Z,1018.76
2023-01-27T06:17:33.212Z,1018.74
2023-01-27T06:18:33.198Z,1018.77
2023-01-27T06:19:33.191Z,1018.78
2023-01-27T06:20:33.185Z,1018.75
2023-01-27T06:21:33.171Z,1018.76
2023-01-27T06:22:33.178Z,1018.76
2023-01-27T06:23:33.191Z,1018.79
2023-01-27T06:24:33.181Z,1018.76
2023-01-27T06:25:33.132Z,1018.75
2023-01-27T06:26:33.122Z,1018.77
2023-01-27T06:27:33.112Z,1018.79
2023-01-27T06:28:33.113Z,1018.78
2023-01-27T06:29:33.095Z,1018.85
2023-01-27T06:30:33.076Z,1018.84
2023-01-27T06:31:33.158Z,1018.86
2023-01-27T06:32:33.064Z,1018.87
2023-01-27T06:33:33.065Z,1018.83
2023-01-27T06:34:33.038Z,1018.87
2023-01-27T06:35:33.028Z,1018.90
2023-01-27T06:36:33.023Z,1018.91
2023-01-27T06:37:33.011Z,1018.91
2023-01-27T06:38:33.017Z,1018.92
2023-01-27T06:39:32.989Z,1018.91
2023-01-27T06:40:32.984Z,1018.96
2023-01-27T06:41:32.978Z,1018.94
2023-01-27T06:42:32.958Z,1018.96
2023-01-27T06:43:32.952Z,1018.94
2023-01-27T06:44:32.945Z,1018.96
2023-01-27T06:45:32.940Z,1018.97
2023-01-27T06:46:33.011Z,1019.01
2023-01-27T06:47:32.911Z,1018.97
2023-01-27T06:48:32.917Z,1019.04
2023-01-27T06:49:32.895Z,1019.03
2023-01-27T06:50:32.877Z,1019.06
2023-01-27T06:51:32.877Z,1019.09
2023-01-27T06:52:32.859Z,1019.09
2023-01-27T06:53:32.848Z,1019.12
2023-01-27T06:54:32.856Z,1019.10
2023-01-27T06:55:32.830Z,1019.12
2023-01-27T06:56:32.829Z,1019.10
2023-01-27T06:57:32.833Z,1019.13
2023-01-27T06:58:32.800Z,1019.08
2023-01-27T06:59:32.802Z,1019.09
2023-01-27T07:00:32.781Z,1019.09
2023-01-27T07:01:32.830Z,1019.15
2023-01-27T07:02:32.775Z,1019.14
2023-01-27T07:03:32.757Z,1019.13
2023-01-27T07:04:32.746Z,1019.15
2023-01-27T07:05:32.731Z,1019.18
2023-01-27T07:06:32.721Z,1019.16
2023-01-27T07:07:32.710Z,1019.16
2023-01-27T07:08:32.699Z,1019.17
2023-01-27T07:09:42.880Z,1019.20
2023-01-27T07:10:32.731Z,1019.23
2023-01-27T07:11:32.674Z,1019.24
2023-01-27T07:12:32.659Z,1019.25
2023-01-27T07:13:32.655Z,1019.21
2023-01-27T07:14:32.641Z,1019.22
2023-01-27T07:15:32.641Z,1019.25
2023-01-27T07:16:32.700Z,1019.22
2023-01-27T07:17:32.629Z,1019.21
2023-01-27T07:18:32.604Z,1019.23
2023-01-27T07:19:34.571Z,1019.23
2023-01-27T07:20:32.605Z,1019.26
2023-01-27T07:21:32.574Z,1019.25
2023-01-27T07:22:32.581Z,1019.25
2023-01-27T07:23:32.561Z,1019.30
2023-01-27T07:24:32.544Z,1019.31
2023-01-27T07:25:32.544Z,1019.27
2023-01-27T07:26:32.538Z,1019.25
2023-01-27T07:27:32.517Z,1019.25
2023-01-27T07:28:32.507Z,1019.28
2023-01-27T07:29:32.494Z,1019.28
2023-01-27T07:30:32.486Z,1019.29
2023-01-27T07:31:32.510Z,1019.33
2023-01-27T07:32:32.463Z,1019.30
2023-01-27T07:33:32.458Z,1019.31
2023-01-27T07:34:32.442Z,1019.31
2023-01-27T07:35:32.441Z,1019.31
2023-01-27T07:36:32.423Z,1019.31
2023-01-27T07:37:33.814Z,1019.32
2023-01-27T07:38:32.424Z,1019.30
2023-01-27T07:39:32.399Z,1019.31
2023-01-27T07:40:32.386Z,1019.33
2023-01-27T07:41:32.382Z,1019.32
2023-01-27T07:42:32.387Z,1019.30
2023-01-27T07:43:32.357Z,1019.35
2023-01-27T07:44:32.348Z,1019.35
2023-01-27T07:45:32.415Z,1019.33
2023-01-27T07:46:32.329Z,1019.34
2023-01-27T07:47:32.319Z,1019.33
2023-01-27T07:48:32.311Z,1019.35
2023-01-27T07:49:32.297Z,1019.35
2023-01-27T07:50:32.282Z,1019.34
2023-01-27T07:51:32.276Z,1019.31
2023-01-27T07:52:32.299Z,1019.35
2023-01-27T07:53:32.267Z,1019.38
2023-01-27T07:54:32.247Z,1019.32
2023-01-27T07:55:32.251Z,1019.35
2023-01-27T07:56:32.237Z,1019.35
2023-01-27T07:57:32.234Z,1019.39
2023-01-27T07:58:32.225Z,1019.40
2023-01-27T07:59:32.197Z,1019.42
2023-01-27T08:00:32.188Z,1019.41
2023-01-27T08:01:32.177Z,1019.44
2023-01-27T08:02:32.168Z,1019.44
2023-01-27T08:03:32.175Z,1019.43
2023-01-27T08:04:43.481Z,1019.46
2023-01-27T08:05:32.147Z,1019.44
2023-01-27T08:06:32.126Z,1019.45
2023-01-27T08:07:32.116Z,1019.42
2023-01-27T08:08:32.108Z,1019.46
2023-01-27T08:09:32.099Z,1019.45
2023-01-27T08:10:32.120Z,1019.44
2023-01-27T08:11:32.078Z,1019.43
2023-01-27T08:12:32.083Z,1019.44
2023-01-27T08:13:32.059Z,1019.46
2023-01-27T08:14:32.069Z,1019.48
2023-01-27T08:15:32.045Z,1019.53
2023-01-27T08:16:32.042Z,1019.48
2023-01-27T08:17:32.028Z,1019.51
2023-01-27T08:18:32.005Z,1019.47
2023-01-27T08:19:32.013Z,1019.53
2023-01-27T08:20:31.986Z,1019.51
2023-01-27T08:21:31.986Z,1019.54
2023-01-27T08:22:31.968Z,1019.48
2023-01-27T08:23:31.957Z,1019.51
2023-01-27T08:24:31.945Z,1019.53
2023-01-27T08:25:31.939Z,1019.59
2023-01-27T08:26:31.925Z,1019.56
2023-01-27T08:27:31.918Z,1019.53
2023-01-27T08:28:31.907Z,1019.55
2023-01-27T08:29:31.898Z,1019.53
2023-01-27T08:30:31.931Z,1019.51
2023-01-27T08:31:31.924Z,1019.53
2023-01-27T08:32:31.868Z,1019.51
2023-01-27T08:33:31.857Z,1019.52
2023-01-27T08:34:31.846Z,1019.51
2023-01-27T08:35:31.841Z,1019.54
2023-01-27T08:36:31.834Z,1019.50
2023-01-27T08:37:31.820Z,1019.49
2023-01-27T08:38:31.807Z,1019.56
2023-01-27T08:39:31.809Z,1019.48
2023-01-27T08:40:31.786Z,1019.48
2023-01-27T08:41:31.791Z,1019.51
2023-01-27T08:42:31.767Z,1019.55
2023-01-27T08:43:31.759Z,1019.55
2023-01-27T08:44:31.749Z,1019.53
2023-01-27T08:45:31.740Z,1019.55
2023-01-27T08:46:31.765Z,1019.60
2023-01-27T08:47:31.720Z,1019.58
2023-01-27T08:48:31.706Z,1019.60
2023-01-27T08:49:31.701Z,1019.60
2023-01-27T08:50:32.039Z,1019.61
2023-01-27T08:51:31.677Z,1019.60
2023-01-27T08:52:31.669Z,1019.62
2023-01-27T08:53:31.673Z,1019.56
2023-01-27T08:54:31.652Z,1019.59
2023-01-27T08:55:31.642Z,1019.58
2023-01-27T08:56:31.645Z,1019.61
2023-01-27T08:57:31.622Z,1019.56
2023-01-27T08:58:31.623Z,1019.52
2023-01-27T08:59:31.602Z,1019.56
2023-01-27T09:00:31.592Z,1019.58
2023-01-27T09:01:31.649Z,1019.52
2023-01-27T09:02:31.602Z,1019.54
2023-01-27T09:03:31.567Z,1019.62
2023-01-27T09:04:31.639Z,1019.61
2023-01-27T09:05:31.547Z,1019.65
2023-01-27T09:06:31.548Z,1019.64
2023-01-27T09:07:31.553Z,1019.64
2023-01-27T09:08:31.518Z,1019.63
2023-01-27T09:09:31.510Z,1019.67
2023-01-27T09:10:31.500Z,1019.67
2023-01-27T09:11:31.495Z,1019.67
2023-01-27T09:12:31.479Z,1019.67
2023-01-27T09:13:31.467Z,1019.69
2023-01-27T09:14:31.457Z,1019.69
2023-01-27T09:15:31.455Z,1019.72
2023-01-27T09:16:31.481Z,1019.78
2023-01-27T09:17:31.469Z,1019.76
2023-01-27T09:18:31.443Z,1019.84
2023-01-27T09:19:31.429Z,1019.84
2023-01-27T09:20:31.404Z,1019.86
2023-01-27T09:21:31.394Z,1019.92
2023-01-27T09:22:31.383Z,1019.92
2023-01-27T09:23:31.375Z,1019.88
2023-01-27T09:24:31.376Z,1019.91
2023-01-27T09:25:31.359Z,1019.94
2023-01-27T09:26:31.345Z,1019.96
2023-01-27T09:27:39.054Z,1019.91
2023-01-27T09:28:31.320Z,1019.92
2023-01-27T09:29:31.316Z,1019.94
2023-01-27T09:30:31.302Z,1020.02
2023-01-27T09:31:31.369Z,1019.98
2023-01-27T09:32:31.281Z,1019.94
2023-01-27T09:33:31.275Z,1019.91
2023-01-27T09:34:31.283Z,1019.90
2023-01-27T09:35:31.256Z,1019.99
2023-01-27T09:36:31.245Z,1020.01
2023-01-27T09:37:31.237Z,1019.92
2023-01-27T09:38:31.238Z,1019.94
2023-01-27T09:39:31.221Z,1019.86
2023-01-27T09:40:31.205Z,1019.95
2023-01-27T09:41:31.208Z,1019.98
2023-01-27T09:42:31.188Z,1019.96
2023-01-27T09:43:31.187Z,1019.99
2023-01-27T09:44:31.169Z,1019.96
2023-01-27T09:45:31.169Z,1020.00
2023-01-27T09:46:31.221Z,1019.99
2023-01-27T09:47:31.144Z,1019.93
2023-01-27T09:48:31.134Z,1020.03
2023-01-27T09:49:31.121Z,1019.94
2023-01-27T09:50:31.477Z,1019.96
2023-01-27T09:51:31.101Z,1019.97
2023-01-27T09:52:46.418Z,1019.96
2023-01-27T09:53:31.090Z,1020.01
2023-01-27T09:54:31.086Z,1019.99
2023-01-27T09:55:31.062Z,1020.05
2023-01-27T09:56:31.052Z,1020.02
2023-01-27T09:57:31.042Z,1020.05
2023-01-27T09:58:31.033Z,1019.99
2023-01-27T09:59:31.031Z,1020.00
2023-01-27T10:00:31.023Z,1020.04
2023-01-27T10:01:31.019Z,1020.02
2023-01-27T10:02:30.998Z,1020.02
2023-01-27T10:03:30.992Z,1020.03
2023-01-27T10:04:31.061Z,1019.96
2023-01-27T10:05:30.969Z,1020.03
2023-01-27T10:06:33.183Z,1020.00
2023-01-27T10:07:30.947Z,1020.04
2023-01-27T10:08:30.940Z,1020.05
2023-01-27T10:09:30.929Z,1020.05
2023-01-27T10:10:30.915Z,1020.01
2023-01-27T10:11:30.909Z,1019.96
2023-01-27T10:12:30.905Z,1020.03
2023-01-27T10:13:30.887Z,1020.04
2023-01-27T10:14:31.179Z,1019.97
2023-01-27T10:15:30.867Z,1019.94
2023-01-27T10:16:30.891Z,1020.00
2023-01-27T10:17:30.853Z,1020.02
2023-01-27T10:18:30.849Z,1019.99
2023-01-27T10:19:30.837Z,1020.00
2023-01-27T10:20:30.819Z,1019.96
2023-01-27T10:21:30.816Z,1019.98
2023-01-27T10:22:30.819Z,1019.94
2023-01-27T10:23:30.811Z,1019.96
2023-01-27T10:24:30.793Z,1019.95
2023-01-27T10:25:30.772Z,1019.97
2023-01-27T10:26:30.773Z,1019.96
2023-01-27T10:27:30.756Z,1019.97
2023-01-27T10:28:30.746Z,1019.96
2023-01-27T10:29:30.741Z,1020.01
2023-01-27T10:30:30.725Z,1019.98
2023-01-27T10:31:30.768Z,1019.98
2023-01-27T10:32:30.738Z,1019.99
2023-01-27T10:33:30.693Z,1020.01
2023-01-27T10:34:30.689Z,1019.98
2023-01-27T10:35:30.675Z,1019.88
2023-01-27T10:36:30.668Z,1019.93
2023-01-27T10:37:30.655Z,1019.91
2023-01-27T10:38:30.670Z,1019.95
2023-01-27T10:39:30.636Z,1019.93
2023-01-27T10:40:30.628Z,1019.92
2023-01-27T10:41:30.616Z,1019.99
2023-01-27T10:42:30.610Z,1019.90
2023-01-27T10:43:30.598Z,1019.88
2023-01-27T10:44:30.589Z,1019.88
2023-01-27T10:45:30.595Z,1019.82
2023-01-27T10:46:30.598Z,1019.93
2023-01-27T10:47:30.558Z,1019.91
2023-01-27T10:48:30.553Z,1019.84
2023-01-27T10:49:30.541Z,1019.85
2023-01-27T10:50:30.529Z,1019.86
2023-01-27T10:51:30.520Z,1019.87
2023-01-27T10:52:30.517Z,1019.88
2023-01-27T10:53:30.503Z,1019.85
2023-01-27T10:54:30.521Z,1019.90
2023-01-27T10:55:30.493Z,1019.90
2023-01-27T10:56:30.481Z,1019.88
2023-01-27T10:57:30.462Z,1019.88
2023-01-27T10:58:30.454Z,1019.90
2023-01-27T10:59:30.462Z,1019.90
2023-01-27T11:01:30.957Z,1019.93
2023-01-27T11:02:30.420Z,1019.91
2023-01-27T11:03:30.406Z,1019.93
2023-01-27T11:04:30.417Z,1019.90
2023-01-27T11:05:30.386Z,1019.91
2023-01-27T11:06:30.384Z,1019.89
2023-01-27T11:07:30.366Z,1019.98
2023-01-27T11:08:30.363Z,1019.90
2023-01-27T11:09:30.359Z,1019.92
2023-01-27T11:10:30.359Z,1019.92
2023-01-27T11:11:30.330Z,1019.92
2023-01-27T11:12:30.340Z,1019.89
2023-01-27T11:13:30.314Z,1019.89
2023-01-27T11:14:30.317Z,1019.89
2023-01-27T11:15:30.301Z,1019.93
2023-01-27T11:16:30.330Z,1019.89
2023-01-27T11:17:30.286Z,1019.81
2023-01-27T11:18:30.279Z,1019.81
2023-01-27T11:19:30.255Z,1019.78
2023-01-27T11:20:30.256Z,1019.80
2023-01-27T11:21:30.240Z,1019.81
2023-01-27T11:22:30.227Z,1019.80
2023-01-27T11:23:30.218Z,1019.83
2023-01-27T11:24:30.210Z,1019.77
2023-01-27T11:25:30.205Z,1019.76
2023-01-27T11:26:30.222Z,1019.71
2023-01-27T11:27:30.186Z,1019.73
2023-01-27T11:28:30.182Z,1019.73
2023-01-27T11:29:30.159Z,1019.85
2023-01-27T11:30:30.202Z,1019.82
2023-01-27T11:31:30.319Z,1019.80
2023-01-27T11:32:30.144Z,1019.76
2023-01-27T11:33:30.125Z,1019.77
2023-01-27T11:34:30.118Z,1019.79
2023-01-27T11:35:30.112Z,1019.86
2023-01-27T11:36:30.099Z,1019.84
2023-01-27T11:37:30.089Z,1019.82
2023-01-27T11:38:30.080Z,1019.86
2023-01-27T11:39:30.068Z,1019.84
2023-01-27T11:40:30.066Z,1019.85
2023-01-27T11:41:30.057Z,1019.84
2023-01-27T11:42:30.065Z,1019.84
2023-01-27T11:43:30.035Z,1019.85
2023-01-27T11:44:30.030Z,1019.90
2023-01-27T11:45:30.061Z,1019.88
2023-01-27T11:46:30.007Z,1019.88
2023-01-27T11:47:29.997Z,1019.86
2023-01-27T11:48:29.990Z,1019.83
2023-01-27T11:49:29.985Z,1019.86
2023-01-27T11:50:29.980Z,1019.84
2023-01-27T11:51:29.964Z,1019.86
2023-01-27T11:52:29.955Z,1019.85
2023-01-27T11:53:29.952Z,1019.85
2023-01-27T11:54:29.935Z,1019.90
2023-01-27T11:55:29.929Z,1019.90
2023-01-27T11:56:29.918Z,1019.89
2023-01-27T11:57:29.910Z,1019.94
2023-01-27T11:58:29.918Z,1019.91
2023-01-27T11:59:29.897Z,1019.86
2023-01-27T12:00:29.885Z,1019.88
2023-01-27T12:01:29.882Z,1019.90
2023-01-27T12:02:29.864Z,1019.90
2023-01-27T12:03:29.876Z,1019.86
2023-01-27T12:04:29.931Z,1019.84
2023-01-27T12:05:29.839Z,1019.89
2023-01-27T12:06:29.829Z,1019.87